sensor_id;sensor_type;location;lat;lon;timestamp;P1;P2;P0
49343;PMS5003;35210;41.606;-87.602;2023-03-11T00:00:44;4.20;4.20;2.80
49343;PMS5003;35210;41.606;-87.602;2023-03-11T00:03:13;9.40;7.20;4.60
49343;PMS5003;35210;41.606;-87.602;2023-03-11T00:05:43;4.20;2.00;1.00
49343;PMS5003;35210;41.606;-87.602;2023-03-11T00:08:14;5.60;5.40;2.00
49343;PMS5003;35210;41.606;-87.602;2023-03-11T00:10:45;5.00;5.00;2.00
49343;PMS5003;35210;41.606;-87.602;2023-03-11T00:13:15;4.40;2.80;2.00
49343;PMS5003;35210;41.606;-87.602;2023-03-11T00:15:44;6.80;6.00;3.80
49343;PMS5003;35210;41.606;-87.602;2023-03-11T00:18:14;4.60;4.60;1.00
49343;PMS5003;35210;41.606;-87.602;2023-03-11T00:20:43;4.80;4.80;1.40
49343;PMS5003;35210;41.606;-87.602;2023-03-11T00:23:14;4.20;3.00;1.00
49343;PMS5003;35210;41.606;-87.602;2023-03-11T00:25:44;6.00;6.00;2.00
49343;PMS5003;35210;41.606;-87.602;2023-03-11T00:28:13;3.00;2.80;1.20
49343;PMS5003;35210;41.606;-87.602;2023-03-11T00:30:42;5.00;5.00;1.00
49343;PMS5003;35210;41.606;-87.602;2023-03-11T00:33:12;4.00;3.00;1.00
49343;PMS5003;35210;41.606;-87.602;2023-03-11T00:35:41;6.20;5.80;2.00
49343;PMS5003;35210;41.606;-87.602;2023-03-11T00:38:11;9.00;6.60;2.40
49343;PMS5003;35210;41.606;-87.602;2023-03-11T00:40:42;4.20;4.20;2.00
49343;PMS5003;35210;41.606;-87.602;2023-03-11T00:43:11;7.00;6.60;2.00
49343;PMS5003;35210;41.606;-87.602;2023-03-11T00:45:39;6.80;2.40;1.00
49343;PMS5003;35210;41.606;-87.602;2023-03-11T00:48:08;5.00;5.00;1.40
49343;PMS5003;35210;41.606;-87.602;2023-03-11T00:50:37;2.00;2.00;1.40
49343;PMS5003;35210;41.606;-87.602;2023-03-11T00:53:06;7.00;5.40;3.00
49343;PMS5003;35210;41.606;-87.602;2023-03-11T00:55:34;5.40;5.40;2.00
49343;PMS5003;35210;41.606;-87.602;2023-03-11T00:58:04;6.00;6.00;2.60
49343;PMS5003;35210;41.606;-87.602;2023-03-11T01:00:33;11.00;7.50;3.00
49343;PMS5003;35210;41.606;-87.602;2023-03-11T01:03:01;5.40;5.40;1.80
49343;PMS5003;35210;41.606;-87.602;2023-03-11T01:05:30;5.80;5.60;2.20
49343;PMS5003;35210;41.606;-87.602;2023-03-11T01:08:00;8.60;6.60;3.00
49343;PMS5003;35210;41.606;-87.602;2023-03-11T01:10:29;5.40;5.40;2.40
49343;PMS5003;35210;41.606;-87.602;2023-03-11T01:12:59;6.80;5.80;2.00
49343;PMS5003;35210;41.606;-87.602;2023-03-11T01:15:30;8.60;3.40;1.60
49343;PMS5003;35210;41.606;-87.602;2023-03-11T01:18:00;5.00;5.00;1.40
49343;PMS5003;35210;41.606;-87.602;2023-03-11T01:20:28;4.80;2.40;1.00
49343;PMS5003;35210;41.606;-87.602;2023-03-11T01:22:57;4.20;2.60;1.40
49343;PMS5003;35210;41.606;-87.602;2023-03-11T01:25:26;7.00;5.00;1.00
49343;PMS5003;35210;41.606;-87.602;2023-03-11T01:27:54;2.00;2.00;1.00
49343;PMS5003;35210;41.606;-87.602;2023-03-11T01:30:22;2.20;2.20;1.00
49343;PMS5003;35210;41.606;-87.602;2023-03-11T01:32:54;3.80;2.20;1.00
49343;PMS5003;35210;41.606;-87.602;2023-03-11T01:35:24;1.20;1.20;1.00
49343;PMS5003;35210;41.606;-87.602;2023-03-11T01:37:53;3.20;3.20;1.00
49343;PMS5003;35210;41.606;-87.602;2023-03-11T01:40:23;2.60;1.00;0.00
49343;PMS5003;35210;41.606;-87.602;2023-03-11T01:42:53;2.20;2.00;1.00
49343;PMS5003;35210;41.606;-87.602;2023-03-11T01:48:28;5.00;1.00;0.00
49343;PMS5003;35210;41.606;-87.602;2023-03-11T01:50:56;2.00;1.00;0.20
49343;PMS5003;35210;41.606;-87.602;2023-03-11T01:53:25;1.00;1.00;0.00
49343;PMS5003;35210;41.606;-87.602;2023-03-11T01:55:53;0.80;0.80;0.00
49343;PMS5003;35210;41.606;-87.602;2023-03-11T01:58:22;0.60;0.60;0.00
49343;PMS5003;35210;41.606;-87.602;2023-03-11T02:00:52;1.00;1.00;0.00
49343;PMS5003;35210;41.606;-87.602;2023-03-11T02:03:23;0.40;0.40;0.00
49343;PMS5003;35210;41.606;-87.602;2023-03-11T02:05:56;1.00;1.00;0.00
49343;PMS5003;35210;41.606;-87.602;2023-03-11T02:08:28;1.40;1.40;0.00
49343;PMS5003;35210;41.606;-87.602;2023-03-11T02:10:58;3.00;1.60;0.00
49343;PMS5003;35210;41.606;-87.602;2023-03-11T02:13:28;2.80;2.80;1.00
49343;PMS5003;35210;41.606;-87.602;2023-03-11T02:15:58;2.20;2.20;0.20
49343;PMS5003;35210;41.606;-87.602;2023-03-11T02:18:27;2.00;2.00;0.00
49343;PMS5003;35210;41.606;-87.602;2023-03-11T02:20:59;2.20;2.20;1.00
49343;PMS5003;35210;41.606;-87.602;2023-03-11T02:23:35;2.00;1.20;0.00
49343;PMS5003;35210;41.606;-87.602;2023-03-11T02:26:12;1.00;1.00;1.00
49343;PMS5003;35210;41.606;-87.602;2023-03-11T02:28:48;1.20;1.20;0.00
49343;PMS5003;35210;41.606;-87.602;2023-03-11T02:31:18;1.40;1.40;0.80
49343;PMS5003;35210;41.606;-87.602;2023-03-11T02:33:48;0.40;0.40;0.00
49343;PMS5003;35210;41.606;-87.602;2023-03-11T02:39:12;1.80;1.80;0.80
49343;PMS5003;35210;41.606;-87.602;2023-03-11T02:41:41;1.00;1.00;0.20
49343;PMS5003;35210;41.606;-87.602;2023-03-11T02:44:14;2.60;1.00;0.60
49343;PMS5003;35210;41.606;-87.602;2023-03-11T02:46:43;1.00;1.00;0.00
49343;PMS5003;35210;41.606;-87.602;2023-03-11T02:49:12;1.00;1.00;0.00
49343;PMS5003;35210;41.606;-87.602;2023-03-11T02:51:41;1.00;1.00;0.60
49343;PMS5003;35210;41.606;-87.602;2023-03-11T02:54:09;0.00;0.00;0.00
49343;PMS5003;35210;41.606;-87.602;2023-03-11T02:56:38;1.20;1.20;0.00
49343;PMS5003;35210;41.606;-87.602;2023-03-11T02:59:06;2.00;2.00;1.00
49343;PMS5003;35210;41.606;-87.602;2023-03-11T03:01:36;2.00;1.80;0.20
49343;PMS5003;35210;41.606;-87.602;2023-03-11T03:04:04;1.40;1.40;0.00
49343;PMS5003;35210;41.606;-87.602;2023-03-11T03:06:32;0.80;0.80;0.00
49343;PMS5003;35210;41.606;-87.602;2023-03-11T03:09:00;2.00;2.00;1.00
49343;PMS5003;35210;41.606;-87.602;2023-03-11T03:11:28;0.00;0.00;0.00
49343;PMS5003;35210;41.606;-87.602;2023-03-11T03:13:56;1.60;1.00;0.00
49343;PMS5003;35210;41.606;-87.602;2023-03-11T03:16:24;0.00;0.00;0.00
49343;PMS5003;35210;41.606;-87.602;2023-03-11T03:18:54;1.40;1.40;1.00
49343;PMS5003;35210;41.606;-87.602;2023-03-11T03:21:24;2.40;0.00;0.00
49343;PMS5003;35210;41.606;-87.602;2023-03-11T03:23:52;2.00;2.00;1.00
49343;PMS5003;35210;41.606;-87.602;2023-03-11T03:26:20;2.00;2.00;0.60
49343;PMS5003;35210;41.606;-87.602;2023-03-11T03:28:48;1.80;1.80;1.00
49343;PMS5003;35210;41.606;-87.602;2023-03-11T03:31:17;1.00;1.00;0.20
49343;PMS5003;35210;41.606;-87.602;2023-03-11T03:33:45;0.60;0.60;0.00
49343;PMS5003;35210;41.606;-87.602;2023-03-11T03:36:15;1.00;1.00;1.00
49343;PMS5003;35210;41.606;-87.602;2023-03-11T03:38:43;1.20;0.00;0.00
49343;PMS5003;35210;41.606;-87.602;2023-03-11T03:41:13;1.00;1.00;0.00
49343;PMS5003;35210;41.606;-87.602;2023-03-11T03:43:41;1.00;1.00;0.00
49343;PMS5003;35210;41.606;-87.602;2023-03-11T03:46:11;1.00;1.00;0.00
49343;PMS5003;35210;41.606;-87.602;2023-03-11T03:48:39;1.20;1.20;0.00
49343;PMS5003;35210;41.606;-87.602;2023-03-11T03:51:08;1.80;1.80;1.00
49343;PMS5003;35210;41.606;-87.602;2023-03-11T03:53:39;0.60;0.60;0.60
49343;PMS5003;35210;41.606;-87.602;2023-03-11T03:56:09;1.20;1.20;1.00
49343;PMS5003;35210;41.606;-87.602;2023-03-11T03:58:38;1.40;1.00;0.40
49343;PMS5003;35210;41.606;-87.602;2023-03-11T04:01:07;3.20;2.00;0.80
49343;PMS5003;35210;41.606;-87.602;2023-03-11T04:03:36;0.00;0.00;0.00
49343;PMS5003;35210;41.606;-87.602;2023-03-11T04:06:05;2.00;2.00;0.00
49343;PMS5003;35210;41.606;-87.602;2023-03-11T04:08:34;0.00;0.00;0.00
49343;PMS5003;35210;41.606;-87.602;2023-03-11T04:11:04;2.00;2.00;0.00
49343;PMS5003;35210;41.606;-87.602;2023-03-11T04:13:33;0.80;0.80;0.00
49343;PMS5003;35210;41.606;-87.602;2023-03-11T04:16:01;2.00;0.40;0.00
49343;PMS5003;35210;41.606;-87.602;2023-03-11T04:18:31;1.00;1.00;0.80
49343;PMS5003;35210;41.606;-87.602;2023-03-11T04:20:59;2.20;1.00;0.40
49343;PMS5003;35210;41.606;-87.602;2023-03-11T04:23:31;1.20;1.20;1.00
49343;PMS5003;35210;41.606;-87.602;2023-03-11T04:26:01;1.80;1.80;0.00
49343;PMS5003;35210;41.606;-87.602;2023-03-11T04:28:31;1.60;0.40;0.40
49343;PMS5003;35210;41.606;-87.602;2023-03-11T04:31:00;1.00;1.00;0.20
49343;PMS5003;35210;41.606;-87.602;2023-03-11T04:33:28;1.00;1.00;1.00
49343;PMS5003;35210;41.606;-87.602;2023-03-11T04:35:56;2.20;1.40;0.00
49343;PMS5003;35210;41.606;-87.602;2023-03-11T04:38:24;1.80;1.00;0.00
49343;PMS5003;35210;41.606;-87.602;2023-03-11T04:40:52;2.00;2.00;0.60
49343;PMS5003;35210;41.606;-87.602;2023-03-11T04:43:20;2.20;2.20;1.00
49343;PMS5003;35210;41.606;-87.602;2023-03-11T04:45:50;1.60;1.60;1.00
49343;PMS5003;35210;41.606;-87.602;2023-03-11T04:48:18;2.80;1.60;1.00
49343;PMS5003;35210;41.606;-87.602;2023-03-11T04:50:46;0.00;0.00;0.00
49343;PMS5003;35210;41.606;-87.602;2023-03-11T04:53:14;5.00;3.00;1.20
49343;PMS5003;35210;41.606;-87.602;2023-03-11T04:55:42;4.60;4.60;1.60
49343;PMS5003;35210;41.606;-87.602;2023-03-11T04:58:12;4.80;2.00;1.00
49343;PMS5003;35210;41.606;-87.602;2023-03-11T05:00:42;5.60;2.60;1.40
49343;PMS5003;35210;41.606;-87.602;2023-03-11T05:03:12;2.00;2.00;1.00
49343;PMS5003;35210;41.606;-87.602;2023-03-11T05:05:40;3.40;2.00;1.00
49343;PMS5003;35210;41.606;-87.602;2023-03-11T05:08:08;2.00;2.00;1.00
49343;PMS5003;35210;41.606;-87.602;2023-03-11T05:10:38;1.00;1.00;0.00
49343;PMS5003;35210;41.606;-87.602;2023-03-11T05:13:06;1.00;1.00;1.00
49343;PMS5003;35210;41.606;-87.602;2023-03-11T05:15:34;2.00;2.00;0.60
49343;PMS5003;35210;41.606;-87.602;2023-03-11T05:18:02;1.00;1.00;0.20
49343;PMS5003;35210;41.606;-87.602;2023-03-11T05:20:32;2.00;0.60;0.00
49343;PMS5003;35210;41.606;-87.602;2023-03-11T05:23:00;1.20;1.20;0.00
49343;PMS5003;35210;41.606;-87.602;2023-03-11T05:25:28;1.20;1.20;1.00
49343;PMS5003;35210;41.606;-87.602;2023-03-11T05:27:57;1.00;1.00;0.00
49343;PMS5003;35210;41.606;-87.602;2023-03-11T05:30:25;1.00;1.00;0.40
49343;PMS5003;35210;41.606;-87.602;2023-03-11T05:32:53;1.60;1.60;1.00
49343;PMS5003;35210;41.606;-87.602;2023-03-11T05:35:22;1.00;1.00;1.00
49343;PMS5003;35210;41.606;-87.602;2023-03-11T05:37:52;2.60;1.00;1.00
49343;PMS5003;35210;41.606;-87.602;2023-03-11T05:40:20;1.60;1.60;0.20
49343;PMS5003;35210;41.606;-87.602;2023-03-11T05:42:48;2.00;2.00;1.00
49343;PMS5003;35210;41.606;-87.602;2023-03-11T05:45:16;1.00;1.00;0.00
49343;PMS5003;35210;41.606;-87.602;2023-03-11T05:47:44;1.80;1.60;0.80
49343;PMS5003;35210;41.606;-87.602;2023-03-11T05:50:12;0.80;0.00;0.00
49343;PMS5003;35210;41.606;-87.602;2023-03-11T05:52:40;1.00;1.00;0.20
49343;PMS5003;35210;41.606;-87.602;2023-03-11T05:55:10;1.00;1.00;1.00
49343;PMS5003;35210;41.606;-87.602;2023-03-11T05:57:38;1.00;1.00;1.00
49343;PMS5003;35210;41.606;-87.602;2023-03-11T06:00:07;1.40;1.40;1.00
49343;PMS5003;35210;41.606;-87.602;2023-03-11T06:02:37;2.00;2.00;1.00
49343;PMS5003;35210;41.606;-87.602;2023-03-11T06:05:06;1.60;1.60;0.60
49343;PMS5003;35210;41.606;-87.602;2023-03-11T06:07:35;2.00;2.00;1.00
49343;PMS5003;35210;41.606;-87.602;2023-03-11T06:10:03;1.20;1.20;1.00
49343;PMS5003;35210;41.606;-87.602;2023-03-11T06:12:34;1.00;1.00;0.80
49343;PMS5003;35210;41.606;-87.602;2023-03-11T06:15:03;2.00;2.00;1.00
49343;PMS5003;35210;41.606;-87.602;2023-03-11T06:17:32;1.00;1.00;0.00
49343;PMS5003;35210;41.606;-87.602;2023-03-11T06:20:01;1.00;1.00;0.00
49343;PMS5003;35210;41.606;-87.602;2023-03-11T06:22:30;1.00;1.00;0.00
49343;PMS5003;35210;41.606;-87.602;2023-03-11T06:24:58;2.80;2.00;0.20
49343;PMS5003;35210;41.606;-87.602;2023-03-11T06:27:26;2.60;1.00;1.00
49343;PMS5003;35210;41.606;-87.602;2023-03-11T06:29:56;2.00;1.00;0.00
49343;PMS5003;35210;41.606;-87.602;2023-03-11T06:32:25;1.00;1.00;1.00
49343;PMS5003;35210;41.606;-87.602;2023-03-11T06:34:54;2.60;1.00;0.00
49343;PMS5003;35210;41.606;-87.602;2023-03-11T06:37:22;0.40;0.00;0.00
49343;PMS5003;35210;41.606;-87.602;2023-03-11T06:39:51;1.00;1.00;0.00
49343;PMS5003;35210;41.606;-87.602;2023-03-11T06:42:19;0.00;0.00;0.00
49343;PMS5003;35210;41.606;-87.602;2023-03-11T06:44:48;0.40;0.40;0.00
49343;PMS5003;35210;41.606;-87.602;2023-03-11T06:47:18;0.40;0.40;0.00
49343;PMS5003;35210;41.606;-87.602;2023-03-11T06:49:46;0.00;0.00;0.00
49343;PMS5003;35210;41.606;-87.602;2023-03-11T06:52:16;1.40;1.40;0.80
49343;PMS5003;35210;41.606;-87.602;2023-03-11T06:54:44;1.00;1.00;0.20
49343;PMS5003;35210;41.606;-87.602;2023-03-11T06:57:13;1.00;1.00;0.20
49343;PMS5003;35210;41.606;-87.602;2023-03-11T06:59:43;1.20;1.20;0.00
49343;PMS5003;35210;41.606;-87.602;2023-03-11T07:02:12;1.20;1.20;0.20
49343;PMS5003;35210;41.606;-87.602;2023-03-11T07:04:42;1.00;1.00;0.00
49343;PMS5003;35210;41.606;-87.602;2023-03-11T07:07:10;3.00;2.00;1.00
49343;PMS5003;35210;41.606;-87.602;2023-03-11T07:09:38;1.00;1.00;0.00
49343;PMS5003;35210;41.606;-87.602;2023-03-11T07:12:07;1.00;1.00;0.20
49343;PMS5003;35210;41.606;-87.602;2023-03-11T07:14:39;1.20;1.20;0.20
49343;PMS5003;35210;41.606;-87.602;2023-03-11T07:17:07;1.00;1.00;0.40
49343;PMS5003;35210;41.606;-87.602;2023-03-11T07:19:35;1.20;0.00;0.00
49343;PMS5003;35210;41.606;-87.602;2023-03-11T07:22:06;1.00;1.00;0.80
49343;PMS5003;35210;41.606;-87.602;2023-03-11T07:24:35;1.00;0.00;0.00
49343;PMS5003;35210;41.606;-87.602;2023-03-11T07:27:03;1.00;1.00;0.80
49343;PMS5003;35210;41.606;-87.602;2023-03-11T07:29:31;1.00;1.00;0.00
49343;PMS5003;35210;41.606;-87.602;2023-03-11T07:32:00;0.00;0.00;0.00
49343;PMS5003;35210;41.606;-87.602;2023-03-11T07:34:28;2.00;2.00;1.00
49343;PMS5003;35210;41.606;-87.602;2023-03-11T07:36:57;0.00;0.00;0.00
49343;PMS5003;35210;41.606;-87.602;2023-03-11T07:39:26;1.00;1.00;0.40
49343;PMS5003;35210;41.606;-87.602;2023-03-11T07:41:55;1.00;1.00;1.00
49343;PMS5003;35210;41.606;-87.602;2023-03-11T07:44:23;1.00;1.00;1.00
49343;PMS5003;35210;41.606;-87.602;2023-03-11T07:46:51;2.00;1.00;1.00
49343;PMS5003;35210;41.606;-87.602;2023-03-11T07:49:19;2.00;2.00;1.00
49343;PMS5003;35210;41.606;-87.602;2023-03-11T07:51:47;1.00;1.00;1.00
49343;PMS5003;35210;41.606;-87.602;2023-03-11T07:54:15;2.40;2.40;1.40
49343;PMS5003;35210;41.606;-87.602;2023-03-11T07:56:45;1.00;1.00;0.80
49343;PMS5003;35210;41.606;-87.602;2023-03-11T07:59:13;1.40;1.40;1.00
49343;PMS5003;35210;41.606;-87.602;2023-03-11T08:01:41;1.20;1.20;1.00
49343;PMS5003;35210;41.606;-87.602;2023-03-11T08:04:12;1.00;1.00;0.60
49343;PMS5003;35210;41.606;-87.602;2023-03-11T08:06:41;1.80;1.80;0.00
49343;PMS5003;35210;41.606;-87.602;2023-03-11T08:09:12;1.00;1.00;0.40
49343;PMS5003;35210;41.606;-87.602;2023-03-11T08:11:40;1.40;1.40;0.40
49343;PMS5003;35210;41.606;-87.602;2023-03-11T08:14:10;1.60;1.60;1.00
49343;PMS5003;35210;41.606;-87.602;2023-03-11T08:16:38;1.20;1.20;0.80
49343;PMS5003;35210;41.606;-87.602;2023-03-11T08:19:09;1.00;1.00;0.00
49343;PMS5003;35210;41.606;-87.602;2023-03-11T08:21:38;2.00;2.00;1.00
49343;PMS5003;35210;41.606;-87.602;2023-03-11T08:24:06;3.00;2.00;1.00
49343;PMS5003;35210;41.606;-87.602;2023-03-11T08:26:36;2.00;2.00;1.00
49343;PMS5003;35210;41.606;-87.602;2023-03-11T08:29:05;0.60;0.60;0.00
49343;PMS5003;35210;41.606;-87.602;2023-03-11T08:31:35;1.60;1.40;0.80
49343;PMS5003;35210;41.606;-87.602;2023-03-11T08:34:04;1.00;1.00;1.00
49343;PMS5003;35210;41.606;-87.602;2023-03-11T08:36:33;2.00;2.00;1.00
49343;PMS5003;35210;41.606;-87.602;2023-03-11T08:39:01;2.60;1.00;0.80
49343;PMS5003;35210;41.606;-87.602;2023-03-11T08:41:30;1.00;1.00;0.00
49343;PMS5003;35210;41.606;-87.602;2023-03-11T08:43:58;2.80;2.80;1.00
49343;PMS5003;35210;41.606;-87.602;2023-03-11T08:46:27;2.00;2.00;1.00
49343;PMS5003;35210;41.606;-87.602;2023-03-11T08:48:58;3.00;3.00;2.00
49343;PMS5003;35210;41.606;-87.602;2023-03-11T08:51:26;4.20;2.00;0.00
49343;PMS5003;35210;41.606;-87.602;2023-03-11T08:53:55;1.00;1.00;0.00
49343;PMS5003;35210;41.606;-87.602;2023-03-11T08:56:23;1.00;1.00;0.40
49343;PMS5003;35210;41.606;-87.602;2023-03-11T08:58:52;1.00;1.00;0.00
49343;PMS5003;35210;41.606;-87.602;2023-03-11T09:01:22;1.20;1.20;0.00
49343;PMS5003;35210;41.606;-87.602;2023-03-11T09:03:50;3.40;1.60;1.00
49343;PMS5003;35210;41.606;-87.602;2023-03-11T09:06:20;2.00;2.00;1.00
49343;PMS5003;35210;41.606;-87.602;2023-03-11T09:08:49;1.00;1.00;0.80
49343;PMS5003;35210;41.606;-87.602;2023-03-11T09:11:17;1.00;1.00;0.00
49343;PMS5003;35210;41.606;-87.602;2023-03-11T09:13:47;3.80;2.00;0.20
49343;PMS5003;35210;41.606;-87.602;2023-03-11T09:16:16;2.00;1.00;0.40
49343;PMS5003;35210;41.606;-87.602;2023-03-11T09:18:45;2.60;2.00;1.00
49343;PMS5003;35210;41.606;-87.602;2023-03-11T09:21:13;2.40;1.60;1.00
49343;PMS5003;35210;41.606;-87.602;2023-03-11T09:23:43;1.60;1.60;0.40
49343;PMS5003;35210;41.606;-87.602;2023-03-11T09:26:11;1.00;1.00;0.00
49343;PMS5003;35210;41.606;-87.602;2023-03-11T09:28:40;1.00;1.00;0.00
49343;PMS5003;35210;41.606;-87.602;2023-03-11T09:31:13;1.60;1.60;1.00
49343;PMS5003;35210;41.606;-87.602;2023-03-11T09:33:42;3.00;1.20;1.00
49343;PMS5003;35210;41.606;-87.602;2023-03-11T09:36:11;1.20;1.20;0.00
49343;PMS5003;35210;41.606;-87.602;2023-03-11T09:38:41;2.00;2.00;1.00
49343;PMS5003;35210;41.606;-87.602;2023-03-11T09:41:14;2.00;2.00;1.00
49343;PMS5003;35210;41.606;-87.602;2023-03-11T09:43:58;1.00;1.00;0.80
49343;PMS5003;35210;41.606;-87.602;2023-03-11T09:46:47;1.00;1.00;0.00
49343;PMS5003;35210;41.606;-87.602;2023-03-11T09:49:57;1.80;1.80;1.00
49343;PMS5003;35210;41.606;-87.602;2023-03-11T09:52:43;3.60;2.20;1.00
49343;PMS5003;35210;41.606;-87.602;2023-03-11T09:55:33;1.80;1.40;0.80
49343;PMS5003;35210;41.606;-87.602;2023-03-11T09:58:08;2.80;2.80;1.00
49343;PMS5003;35210;41.606;-87.602;2023-03-11T10:00:39;2.00;1.80;1.00
49343;PMS5003;35210;41.606;-87.602;2023-03-11T10:03:12;3.80;3.80;1.00
49343;PMS5003;35210;41.606;-87.602;2023-03-11T10:05:51;2.80;2.60;1.00
49343;PMS5003;35210;41.606;-87.602;2023-03-11T10:08:27;4.00;2.20;1.00
49343;PMS5003;35210;41.606;-87.602;2023-03-11T10:11:03;2.40;2.40;1.00
49343;PMS5003;35210;41.606;-87.602;2023-03-11T10:13:39;3.00;3.00;2.00
49343;PMS5003;35210;41.606;-87.602;2023-03-11T10:16:19;2.40;2.40;1.00
49343;PMS5003;35210;41.606;-87.602;2023-03-11T10:18:57;2.40;2.40;1.80
49343;PMS5003;35210;41.606;-87.602;2023-03-11T10:21:34;2.80;2.80;1.00
49343;PMS5003;35210;41.606;-87.602;2023-03-11T10:24:28;5.20;2.80;1.00
49343;PMS5003;35210;41.606;-87.602;2023-03-11T10:27:19;3.80;2.60;1.00
49343;PMS5003;35210;41.606;-87.602;2023-03-11T10:29:54;2.40;1.80;0.80
49343;PMS5003;35210;41.606;-87.602;2023-03-11T10:32:33;6.40;6.40;2.00
49343;PMS5003;35210;41.606;-87.602;2023-03-11T10:35:14;3.00;3.00;2.00
49343;PMS5003;35210;41.606;-87.602;2023-03-11T10:37:46;3.00;3.00;1.00
49343;PMS5003;35210;41.606;-87.602;2023-03-11T10:40:25;5.00;5.00;2.00
49343;PMS5003;35210;41.606;-87.602;2023-03-11T10:42:58;3.80;3.80;2.00
49343;PMS5003;35210;41.606;-87.602;2023-03-11T10:45:32;2.20;2.20;1.60
49343;PMS5003;35210;41.606;-87.602;2023-03-11T10:48:07;2.80;2.80;1.80
49343;PMS5003;35210;41.606;-87.602;2023-03-11T10:50:37;4.20;4.20;1.00
49343;PMS5003;35210;41.606;-87.602;2023-03-11T10:53:14;4.60;4.60;2.00
49343;PMS5003;35210;41.606;-87.602;2023-03-11T10:55:45;5.80;4.20;2.00
49343;PMS5003;35210;41.606;-87.602;2023-03-11T10:58:17;3.00;3.00;1.60
49343;PMS5003;35210;41.606;-87.602;2023-03-11T11:00:58;4.60;4.60;2.00
49343;PMS5003;35210;41.606;-87.602;2023-03-11T11:03:30;6.00;3.80;2.00
49343;PMS5003;35210;41.606;-87.602;2023-03-11T11:06:01;4.20;4.20;1.00
49343;PMS5003;35210;41.606;-87.602;2023-03-11T11:08:30;5.00;4.60;1.40
49343;PMS5003;35210;41.606;-87.602;2023-03-11T11:11:00;6.00;5.00;2.00
49343;PMS5003;35210;41.606;-87.602;2023-03-11T11:13:31;8.40;5.80;1.80
49343;PMS5003;35210;41.606;-87.602;2023-03-11T11:16:01;5.60;5.20;2.00
49343;PMS5003;35210;41.606;-87.602;2023-03-11T11:18:32;2.40;1.80;0.00
49343;PMS5003;35210;41.606;-87.602;2023-03-11T11:21:03;5.40;3.80;2.00
49343;PMS5003;35210;41.606;-87.602;2023-03-11T11:23:35;6.00;6.00;3.00
49343;PMS5003;35210;41.606;-87.602;2023-03-11T11:26:12;5.60;5.00;3.40
49343;PMS5003;35210;41.606;-87.602;2023-03-11T11:28:44;5.80;5.00;2.00
49343;PMS5003;35210;41.606;-87.602;2023-03-11T11:31:19;8.00;7.20;5.00
49343;PMS5003;35210;41.606;-87.602;2023-03-11T11:33:51;5.40;5.00;2.00
49343;PMS5003;35210;41.606;-87.602;2023-03-11T11:36:21;6.20;6.20;3.00
49343;PMS5003;35210;41.606;-87.602;2023-03-11T11:38:54;4.60;3.40;2.00
49343;PMS5003;35210;41.606;-87.602;2023-03-11T11:41:23;3.00;3.00;2.00
49343;PMS5003;35210;41.606;-87.602;2023-03-11T11:43:57;6.40;6.00;3.00
49343;PMS5003;35210;41.606;-87.602;2023-03-11T11:46:30;4.20;4.20;2.00
49343;PMS5003;35210;41.606;-87.602;2023-03-11T11:49:06;4.60;3.80;2.00
49343;PMS5003;35210;41.606;-87.602;2023-03-11T11:51:44;5.00;5.00;2.00
49343;PMS5003;35210;41.606;-87.602;2023-03-11T11:54:20;1.80;1.20;0.00
49343;PMS5003;35210;41.606;-87.602;2023-03-11T11:56:54;6.00;5.00;1.40
49343;PMS5003;35210;41.606;-87.602;2023-03-11T11:59:24;5.80;5.40;2.00
49343;PMS5003;35210;41.606;-87.602;2023-03-11T12:02:03;6.80;5.00;1.20
49343;PMS5003;35210;41.606;-87.602;2023-03-11T12:04:47;6.00;5.00;2.80
49343;PMS5003;35210;41.606;-87.602;2023-03-11T12:07:24;4.20;3.00;1.60
49343;PMS5003;35210;41.606;-87.602;2023-03-11T12:09:59;6.00;6.00;2.00
49343;PMS5003;35210;41.606;-87.602;2023-03-11T12:12:43;4.60;4.60;1.00
49343;PMS5003;35210;41.606;-87.602;2023-03-11T12:15:24;6.00;6.00;3.00
49343;PMS5003;35210;41.606;-87.602;2023-03-11T12:17:58;6.80;5.60;2.00
49343;PMS5003;35210;41.606;-87.602;2023-03-11T12:20:32;5.60;3.00;2.00
49343;PMS5003;35210;41.606;-87.602;2023-03-11T12:26:11;6.20;6.20;3.00
49343;PMS5003;35210;41.606;-87.602;2023-03-11T12:28:44;7.80;6.00;3.00
49343;PMS5003;35210;41.606;-87.602;2023-03-11T12:31:18;5.00;5.00;3.00
49343;PMS5003;35210;41.606;-87.602;2023-03-11T12:33:49;9.00;7.00;5.00
49343;PMS5003;35210;41.606;-87.602;2023-03-11T12:36:23;5.80;5.80;2.40
49343;PMS5003;35210;41.606;-87.602;2023-03-11T12:38:56;7.60;4.60;2.00
49343;PMS5003;35210;41.606;-87.602;2023-03-11T12:41:30;3.00;3.00;2.40
49343;PMS5003;35210;41.606;-87.602;2023-03-11T12:44:02;8.00;5.00;2.00
49343;PMS5003;35210;41.606;-87.602;2023-03-11T12:49:35;9.20;6.60;2.80
49343;PMS5003;35210;41.606;-87.602;2023-03-11T12:52:17;7.20;7.20;2.80
49343;PMS5003;35210;41.606;-87.602;2023-03-11T12:54:48;9.00;5.00;1.20
49343;PMS5003;35210;41.606;-87.602;2023-03-11T12:57:37;9.00;7.80;5.00
49343;PMS5003;35210;41.606;-87.602;2023-03-11T13:03:33;7.40;7.40;3.00
49343;PMS5003;35210;41.606;-87.602;2023-03-11T13:06:16;10.20;6.20;2.20
49343;PMS5003;35210;41.606;-87.602;2023-03-11T13:08:56;10.80;6.00;3.80
49343;PMS5003;35210;41.606;-87.602;2023-03-11T13:11:28;5.00;5.00;0.40
49343;PMS5003;35210;41.606;-87.602;2023-03-11T13:14:08;7.60;6.20;3.00
49343;PMS5003;35210;41.606;-87.602;2023-03-11T13:16:46;12.00;7.00;3.00
49343;PMS5003;35210;41.606;-87.602;2023-03-11T13:19:31;7.00;7.00;3.00
49343;PMS5003;35210;41.606;-87.602;2023-03-11T13:22:09;10.80;8.60;5.00
49343;PMS5003;35210;41.606;-87.602;2023-03-11T13:28:21;8.00;8.00;3.00
49343;PMS5003;35210;41.606;-87.602;2023-03-11T13:31:11;8.20;8.20;6.00
49343;PMS5003;35210;41.606;-87.602;2023-03-11T13:33:50;8.00;8.00;3.80
49343;PMS5003;35210;41.606;-87.602;2023-03-11T13:39:38;15.80;10.00;6.00
49343;PMS5003;35210;41.606;-87.602;2023-03-11T13:42:17;8.40;8.40;5.20
49343;PMS5003;35210;41.606;-87.602;2023-03-11T13:44:54;8.60;7.60;5.00
49343;PMS5003;35210;41.606;-87.602;2023-03-11T13:47:24;10.60;9.80;3.40
49343;PMS5003;35210;41.606;-87.602;2023-03-11T13:49:58;10.40;10.40;5.00
49343;PMS5003;35210;41.606;-87.602;2023-03-11T13:52:30;8.60;7.20;5.00
49343;PMS5003;35210;41.606;-87.602;2023-03-11T13:55:03;12.00;10.60;4.20
49343;PMS5003;35210;41.606;-87.602;2023-03-11T13:57:42;8.00;7.20;3.40
49343;PMS5003;35210;41.606;-87.602;2023-03-11T14:00:18;9.80;8.60;4.20
49343;PMS5003;35210;41.606;-87.602;2023-03-11T14:02:49;12.00;9.80;5.60
49343;PMS5003;35210;41.606;-87.602;2023-03-11T14:05:21;11.40;10.00;6.00
49343;PMS5003;35210;41.606;-87.602;2023-03-11T14:07:51;11.00;8.60;3.40
49343;PMS5003;35210;41.606;-87.602;2023-03-11T14:10:22;12.80;9.20;5.00
49343;PMS5003;35210;41.606;-87.602;2023-03-11T14:13:10;6.00;5.20;2.00
49343;PMS5003;35210;41.606;-87.602;2023-03-11T14:15:44;13.00;11.20;7.00
49343;PMS5003;35210;41.606;-87.602;2023-03-11T14:18:33;10.00;10.00;6.00
49343;PMS5003;35210;41.606;-87.602;2023-03-11T14:21:04;11.60;9.60;5.00
49343;PMS5003;35210;41.606;-87.602;2023-03-11T14:23:39;12.00;10.20;6.00
49343;PMS5003;35210;41.606;-87.602;2023-03-11T14:26:13;10.60;9.20;6.00
49343;PMS5003;35210;41.606;-87.602;2023-03-11T14:28:44;9.80;8.80;5.00
49343;PMS5003;35210;41.606;-87.602;2023-03-11T14:31:28;14.40;12.60;8.40
49343;PMS5003;35210;41.606;-87.602;2023-03-11T14:33:58;17.40;15.80;8.80
49343;PMS5003;35210;41.606;-87.602;2023-03-11T14:36:29;16.40;15.60;8.60
49343;PMS5003;35210;41.606;-87.602;2023-03-11T14:38:58;19.40;19.40;11.00
49343;PMS5003;35210;41.606;-87.602;2023-03-11T14:41:28;19.00;16.00;10.00